Lincoln Airport
KLNK : now visible

Airfield :











YOU CAN JOIN US ON...

 
LOGIN :

Register | Disclaimer

   EN    FR    IT 

 









Legend :    VFR   Marginal VFR   IFR   Intensive IFR   Very Intensive IFR
Visi :
Ceiling :
>= 8 km
>= 3000ft
5 to 8 km
1000 to 3000 ft
1500m to 5 km
500 to 1000 ft
800 to 1500m
200 to 500 ft
< 800m
< 200 ft
Symbols :   Thunderstorms  Fog  Heavy snow  Heavy precipitations  Wind > 20 kt






- Airport Elevation : 1219 ft
- IATA code : LNK


KLNK - Lincoln

CURRENT METAR :
  • 281811Z 20004KT 7SM -RA OVC006 12/10 A2934 RMK AO2 CIG 003V008 P0000 T01170100

EXPIRED METARs :
  • 281754Z 16003KT 3SM -RA BR OVC004 11/09 A2935 RMK AO2 RAB14 SLP940 P0001 60003 T01060094 10106 20078 56035
  • 281730Z 10004KT 3SM -RA BR OVC003 10/09 A2936 RMK AO2 RAB14 P0000 T01000089
  • 281710Z 05003KT 1 1/2SM BR OVC003 10/09 A2937 RMK AO2 T01000089
  • 281654Z 00000KT 2SM BR OVC003 10/09 A2937 RMK AO2 RAE1559 SLP948 P0001 T01000089
  • 281608Z 07007KT 1 3/4SM BR OVC003 09/08 A2940 RMK AO2 RAE1559 P0000 T00890078
  • 281554Z 07007KT 2SM -RA BR OVC003 09/08 A2941 RMK AO2 RAB00 SLP962 P0001 T00890078

TAF KLNK
Valid from the 28 at 18:00 until the 29 at 18:00 UTC


281821Z 2818/2918 20004KT P6SM -SHRA OVC006
FM282100 29020G28KT 3SM BR OVC005
FM282300 30022G35KT 6SM -SHRA OVC004
FM290100 32030G40KT 6SM -SHRA OVC010
FM290300 31021G28KT P6SM BKN015
FM290600 30015G23KT P6SM SKC
FM291200 30010KT P6SM SKC



MET'MAP, your aeronautical weather chart ! - Copyright ORBIFLY December 2007 - Disclaimer

ORBIFLY MET'MAP TEAM :

Programming & Development : Alexandra Zaïnal
Concept & original design : Baudouin d'Aumeries
Assistance for programming : Marc-Olivier Méhu
Technical & hardware support : Manuel Goepfert

Contact : metmap@orbifly.com




SOURCES & CREDITS :

   NOAA       Earth
Advisory